sensor_id;sensor_type;location;lat;lon;timestamp;P1;durP1;ratioP1;P2;durP2;ratioP2
29500;SDS011;16450;50.288;10.966;2023-04-16T00:02:03;7.23;;;4.90;;
29500;SDS011;16450;50.288;10.966;2023-04-16T00:05:05;7.97;;;5.13;;
29500;SDS011;16450;50.288;10.966;2023-04-16T00:08:08;7.80;;;5.50;;
29500;SDS011;16450;50.288;10.966;2023-04-16T00:11:10;8.13;;;5.30;;
29500;SDS011;16450;50.288;10.966;2023-04-16T00:14:12;8.60;;;5.67;;
29500;SDS011;16450;50.288;10.966;2023-04-16T00:17:14;8.33;;;5.37;;
29500;SDS011;16450;50.288;10.966;2023-04-16T00:20:16;6.83;;;4.73;;
29500;SDS011;16450;50.288;10.966;2023-04-16T00:23:18;6.70;;;4.63;;
29500;SDS011;16450;50.288;10.966;2023-04-16T00:26:20;7.73;;;5.60;;
29500;SDS011;16450;50.288;10.966;2023-04-16T00:29:22;12.23;;;6.20;;
29500;SDS011;16450;50.288;10.966;2023-04-16T00:32:24;8.83;;;5.80;;
29500;SDS011;16450;50.288;10.966;2023-04-16T00:35:26;8.97;;;5.53;;
29500;SDS011;16450;50.288;10.966;2023-04-16T00:38:28;9.23;;;6.00;;
29500;SDS011;16450;50.288;10.966;2023-04-16T00:41:30;9.73;;;6.20;;
29500;SDS011;16450;50.288;10.966;2023-04-16T00:44:32;10.27;;;6.80;;
29500;SDS011;16450;50.288;10.966;2023-04-16T00:47:37;9.93;;;6.47;;
29500;SDS011;16450;50.288;10.966;2023-04-16T00:50:39;9.10;;;6.03;;
29500;SDS011;16450;50.288;10.966;2023-04-16T00:53:42;8.07;;;6.10;;
29500;SDS011;16450;50.288;10.966;2023-04-16T00:56:44;10.03;;;6.33;;
29500;SDS011;16450;50.288;10.966;2023-04-16T00:59:47;8.30;;;5.80;;
29500;SDS011;16450;50.288;10.966;2023-04-16T01:02:49;10.40;;;6.17;;
29500;SDS011;16450;50.288;10.966;2023-04-16T01:05:51;9.33;;;6.07;;
29500;SDS011;16450;50.288;10.966;2023-04-16T01:08:53;8.00;;;5.67;;
29500;SDS011;16450;50.288;10.966;2023-04-16T01:11:55;11.63;;;6.43;;
29500;SDS011;16450;50.288;10.966;2023-04-16T01:14:57;12.17;;;7.83;;
29500;SDS011;16450;50.288;10.966;2023-04-16T01:17:58;10.13;;;6.47;;
29500;SDS011;16450;50.288;10.966;2023-04-16T01:21:01;11.17;;;7.43;;
29500;SDS011;16450;50.288;10.966;2023-04-16T01:24:03;11.37;;;7.33;;
29500;SDS011;16450;50.288;10.966;2023-04-16T01:27:05;11.63;;;7.10;;
29500;SDS011;16450;50.288;10.966;2023-04-16T01:30:07;13.03;;;7.57;;
29500;SDS011;16450;50.288;10.966;2023-04-16T01:33:10;11.10;;;7.17;;
29500;SDS011;16450;50.288;10.966;2023-04-16T01:36:15;12.30;;;7.53;;
29500;SDS011;16450;50.288;10.966;2023-04-16T01:39:17;11.70;;;6.97;;
29500;SDS011;16450;50.288;10.966;2023-04-16T01:42:19;12.40;;;7.90;;
29500;SDS011;16450;50.288;10.966;2023-04-16T01:45:21;11.23;;;7.30;;
29500;SDS011;16450;50.288;10.966;2023-04-16T01:48:23;10.43;;;7.33;;
29500;SDS011;16450;50.288;10.966;2023-04-16T01:51:25;13.63;;;8.60;;
29500;SDS011;16450;50.288;10.966;2023-04-16T01:54:28;12.77;;;8.33;;
29500;SDS011;16450;50.288;10.966;2023-04-16T01:57:30;12.53;;;8.23;;
29500;SDS011;16450;50.288;10.966;2023-04-16T02:00:32;16.00;;;8.37;;
29500;SDS011;16450;50.288;10.966;2023-04-16T02:03:34;12.53;;;8.27;;
29500;SDS011;16450;50.288;10.966;2023-04-16T02:06:36;12.33;;;7.87;;
29500;SDS011;16450;50.288;10.966;2023-04-16T02:09:39;15.63;;;9.13;;
29500;SDS011;16450;50.288;10.966;2023-04-16T02:12:41;13.30;;;8.20;;
29500;SDS011;16450;50.288;10.966;2023-04-16T02:15:47;14.77;;;8.80;;
29500;SDS011;16450;50.288;10.966;2023-04-16T02:18:50;12.57;;;8.63;;
29500;SDS011;16450;50.288;10.966;2023-04-16T02:21:52;13.27;;;8.70;;
29500;SDS011;16450;50.288;10.966;2023-04-16T02:24:55;16.77;;;9.60;;
29500;SDS011;16450;50.288;10.966;2023-04-16T02:27:57;14.83;;;9.33;;
29500;SDS011;16450;50.288;10.966;2023-04-16T02:30:59;14.33;;;9.03;;
29500;SDS011;16450;50.288;10.966;2023-04-16T02:34:01;14.63;;;9.43;;
29500;SDS011;16450;50.288;10.966;2023-04-16T02:37:03;16.00;;;8.63;;
29500;SDS011;16450;50.288;10.966;2023-04-16T02:40:05;14.63;;;9.57;;
29500;SDS011;16450;50.288;10.966;2023-04-16T02:43:08;15.37;;;9.00;;
29500;SDS011;16450;50.288;10.966;2023-04-16T02:46:10;15.20;;;9.50;;
29500;SDS011;16450;50.288;10.966;2023-04-16T02:49:12;14.93;;;9.37;;
29500;SDS011;16450;50.288;10.966;2023-04-16T02:52:13;15.30;;;9.53;;
29500;SDS011;16450;50.288;10.966;2023-04-16T02:55:16;14.67;;;9.03;;
29500;SDS011;16450;50.288;10.966;2023-04-16T02:58:18;14.77;;;9.57;;
29500;SDS011;16450;50.288;10.966;2023-04-16T03:01:21;14.27;;;9.10;;
29500;SDS011;16450;50.288;10.966;2023-04-16T03:04:23;15.50;;;9.67;;
29500;SDS011;16450;50.288;10.966;2023-04-16T03:07:25;15.03;;;9.53;;
29500;SDS011;16450;50.288;10.966;2023-04-16T03:10:26;15.93;;;9.87;;
29500;SDS011;16450;50.288;10.966;2023-04-16T03:13:28;12.40;;;8.07;;
29500;SDS011;16450;50.288;10.966;2023-04-16T03:16:30;15.80;;;9.90;;
29500;SDS011;16450;50.288;10.966;2023-04-16T03:19:32;13.40;;;9.07;;
29500;SDS011;16450;50.288;10.966;2023-04-16T03:22:34;13.20;;;9.10;;
29500;SDS011;16450;50.288;10.966;2023-04-16T03:25:37;13.13;;;8.60;;
29500;SDS011;16450;50.288;10.966;2023-04-16T03:28:40;14.97;;;8.57;;
29500;SDS011;16450;50.288;10.966;2023-04-16T03:31:42;12.40;;;8.30;;
29500;SDS011;16450;50.288;10.966;2023-04-16T03:34:44;13.10;;;8.27;;
29500;SDS011;16450;50.288;10.966;2023-04-16T03:37:46;14.20;;;9.60;;
29500;SDS011;16450;50.288;10.966;2023-04-16T03:40:48;12.13;;;8.43;;
29500;SDS011;16450;50.288;10.966;2023-04-16T03:43:49;13.77;;;8.97;;
29500;SDS011;16450;50.288;10.966;2023-04-16T03:46:51;13.57;;;9.10;;
29500;SDS011;16450;50.288;10.966;2023-04-16T03:49:53;14.40;;;9.40;;
29500;SDS011;16450;50.288;10.966;2023-04-16T03:52:55;16.43;;;9.90;;
29500;SDS011;16450;50.288;10.966;2023-04-16T03:55:57;13.63;;;9.20;;
29500;SDS011;16450;50.288;10.966;2023-04-16T03:59:00;14.60;;;9.23;;
29500;SDS011;16450;50.288;10.966;2023-04-16T04:02:01;13.77;;;9.37;;
29500;SDS011;16450;50.288;10.966;2023-04-16T04:05:04;13.07;;;8.60;;
29500;SDS011;16450;50.288;10.966;2023-04-16T04:08:06;15.20;;;9.60;;
29500;SDS011;16450;50.288;10.966;2023-04-16T04:11:09;16.03;;;10.50;;
29500;SDS011;16450;50.288;10.966;2023-04-16T04:14:11;15.67;;;9.53;;
29500;SDS011;16450;50.288;10.966;2023-04-16T04:17:13;13.40;;;8.13;;
29500;SDS011;16450;50.288;10.966;2023-04-16T04:20:14;15.50;;;9.00;;
29500;SDS011;16450;50.288;10.966;2023-04-16T04:23:16;14.47;;;9.33;;
29500;SDS011;16450;50.288;10.966;2023-04-16T04:26:18;12.93;;;8.30;;
29500;SDS011;16450;50.288;10.966;2023-04-16T04:29:21;11.93;;;7.97;;
29500;SDS011;16450;50.288;10.966;2023-04-16T04:32:23;15.73;;;9.53;;
29500;SDS011;16450;50.288;10.966;2023-04-16T04:35:25;13.00;;;8.60;;
29500;SDS011;16450;50.288;10.966;2023-04-16T04:38:27;16.60;;;9.40;;
29500;SDS011;16450;50.288;10.966;2023-04-16T04:41:30;17.20;;;10.07;;
29500;SDS011;16450;50.288;10.966;2023-04-16T04:44:32;14.93;;;9.67;;
29500;SDS011;16450;50.288;10.966;2023-04-16T04:47:34;14.33;;;9.80;;
29500;SDS011;16450;50.288;10.966;2023-04-16T04:50:35;13.90;;;9.10;;
29500;SDS011;16450;50.288;10.966;2023-04-16T04:53:37;14.00;;;8.43;;
29500;SDS011;16450;50.288;10.966;2023-04-16T04:56:39;14.53;;;9.37;;
29500;SDS011;16450;50.288;10.966;2023-04-16T04:59:41;14.90;;;9.47;;
29500;SDS011;16450;50.288;10.966;2023-04-16T05:02:43;17.23;;;9.30;;
29500;SDS011;16450;50.288;10.966;2023-04-16T05:05:46;12.80;;;8.47;;
29500;SDS011;16450;50.288;10.966;2023-04-16T05:08:48;18.90;;;10.73;;
29500;SDS011;16450;50.288;10.966;2023-04-16T05:11:50;17.90;;;10.23;;
29500;SDS011;16450;50.288;10.966;2023-04-16T05:14:52;18.60;;;11.03;;
29500;SDS011;16450;50.288;10.966;2023-04-16T05:17:53;18.27;;;10.93;;
29500;SDS011;16450;50.288;10.966;2023-04-16T05:20:58;18.10;;;11.23;;
29500;SDS011;16450;50.288;10.966;2023-04-16T05:24:00;17.43;;;10.40;;
29500;SDS011;16450;50.288;10.966;2023-04-16T05:27:02;15.77;;;9.90;;
29500;SDS011;16450;50.288;10.966;2023-04-16T05:30:04;17.53;;;9.97;;
29500;SDS011;16450;50.288;10.966;2023-04-16T05:33:07;14.20;;;8.83;;
29500;SDS011;16450;50.288;10.966;2023-04-16T05:36:09;12.77;;;7.77;;
29500;SDS011;16450;50.288;10.966;2023-04-16T05:39:11;13.60;;;8.20;;
29500;SDS011;16450;50.288;10.966;2023-04-16T05:42:12;14.90;;;9.10;;
29500;SDS011;16450;50.288;10.966;2023-04-16T05:45:15;15.77;;;9.50;;
29500;SDS011;16450;50.288;10.966;2023-04-16T05:48:17;14.27;;;9.23;;
29500;SDS011;16450;50.288;10.966;2023-04-16T05:51:20;15.70;;;9.23;;
29500;SDS011;16450;50.288;10.966;2023-04-16T05:54:25;15.53;;;9.50;;
29500;SDS011;16450;50.288;10.966;2023-04-16T05:57:27;18.27;;;9.93;;
29500;SDS011;16450;50.288;10.966;2023-04-16T06:00:33;18.37;;;9.97;;
29500;SDS011;16450;50.288;10.966;2023-04-16T06:03:35;16.67;;;9.03;;
29500;SDS011;16450;50.288;10.966;2023-04-16T06:06:37;15.57;;;8.67;;
29500;SDS011;16450;50.288;10.966;2023-04-16T06:09:41;14.70;;;7.83;;
29500;SDS011;16450;50.288;10.966;2023-04-16T06:12:43;11.87;;;7.13;;
29500;SDS011;16450;50.288;10.966;2023-04-16T06:15:45;12.17;;;6.53;;
29500;SDS011;16450;50.288;10.966;2023-04-16T06:18:47;11.07;;;6.10;;
29500;SDS011;16450;50.288;10.966;2023-04-16T06:21:49;9.37;;;5.70;;
29500;SDS011;16450;50.288;10.966;2023-04-16T06:24:51;8.90;;;5.13;;
29500;SDS011;16450;50.288;10.966;2023-04-16T06:27:53;8.63;;;5.10;;
29500;SDS011;16450;50.288;10.966;2023-04-16T06:30:55;7.90;;;4.80;;
29500;SDS011;16450;50.288;10.966;2023-04-16T06:33:57;9.00;;;5.53;;
29500;SDS011;16450;50.288;10.966;2023-04-16T06:36:59;8.07;;;5.87;;
29500;SDS011;16450;50.288;10.966;2023-04-16T06:40:02;8.27;;;4.77;;
29500;SDS011;16450;50.288;10.966;2023-04-16T06:43:04;7.37;;;4.47;;
29500;SDS011;16450;50.288;10.966;2023-04-16T06:46:06;7.90;;;4.70;;
29500;SDS011;16450;50.288;10.966;2023-04-16T06:49:08;7.53;;;4.23;;
29500;SDS011;16450;50.288;10.966;2023-04-16T06:52:10;7.00;;;3.90;;
29500;SDS011;16450;50.288;10.966;2023-04-16T06:55:13;6.13;;;3.70;;
29500;SDS011;16450;50.288;10.966;2023-04-16T06:58:15;11.00;;;5.73;;
29500;SDS011;16450;50.288;10.966;2023-04-16T07:01:17;13.90;;;6.87;;
29500;SDS011;16450;50.288;10.966;2023-04-16T07:04:19;11.17;;;6.20;;
29500;SDS011;16450;50.288;10.966;2023-04-16T07:07:21;6.73;;;4.00;;
29500;SDS011;16450;50.288;10.966;2023-04-16T07:10:23;6.07;;;4.10;;
29500;SDS011;16450;50.288;10.966;2023-04-16T07:13:25;6.23;;;3.70;;
29500;SDS011;16450;50.288;10.966;2023-04-16T07:16:27;5.10;;;3.83;;
29500;SDS011;16450;50.288;10.966;2023-04-16T07:19:29;5.37;;;3.43;;
29500;SDS011;16450;50.288;10.966;2023-04-16T07:22:33;5.60;;;4.03;;
29500;SDS011;16450;50.288;10.966;2023-04-16T07:25:34;5.93;;;3.70;;
29500;SDS011;16450;50.288;10.966;2023-04-16T07:28:37;6.07;;;3.90;;
29500;SDS011;16450;50.288;10.966;2023-04-16T07:31:39;8.87;;;4.33;;
29500;SDS011;16450;50.288;10.966;2023-04-16T07:34:41;8.63;;;4.57;;
29500;SDS011;16450;50.288;10.966;2023-04-16T07:37:42;7.23;;;4.73;;
29500;SDS011;16450;50.288;10.966;2023-04-16T07:40:45;4.93;;;3.70;;
29500;SDS011;16450;50.288;10.966;2023-04-16T07:43:47;5.87;;;4.10;;
29500;SDS011;16450;50.288;10.966;2023-04-16T07:46:49;4.67;;;3.20;;
29500;SDS011;16450;50.288;10.966;2023-04-16T07:49:53;9.27;;;4.03;;
29500;SDS011;16450;50.288;10.966;2023-04-16T07:52:55;4.77;;;3.23;;
29500;SDS011;16450;50.288;10.966;2023-04-16T07:55:57;5.07;;;3.60;;
29500;SDS011;16450;50.288;10.966;2023-04-16T07:58:59;5.83;;;3.90;;
29500;SDS011;16450;50.288;10.966;2023-04-16T08:02:14;5.73;;;3.80;;
29500;SDS011;16450;50.288;10.966;2023-04-16T08:05:17;6.83;;;3.77;;
29500;SDS011;16450;50.288;10.966;2023-04-16T08:08:22;4.47;;;3.40;;
29500;SDS011;16450;50.288;10.966;2023-04-16T08:11:24;5.30;;;3.40;;
29500;SDS011;16450;50.288;10.966;2023-04-16T08:14:26;4.60;;;3.10;;
29500;SDS011;16450;50.288;10.966;2023-04-16T08:17:27;4.80;;;2.90;;
29500;SDS011;16450;50.288;10.966;2023-04-16T08:20:30;4.77;;;2.97;;
29500;SDS011;16450;50.288;10.966;2023-04-16T08:23:32;4.50;;;3.13;;
29500;SDS011;16450;50.288;10.966;2023-04-16T08:26:35;4.90;;;3.87;;
29500;SDS011;16450;50.288;10.966;2023-04-16T08:29:37;4.83;;;3.43;;
29500;SDS011;16450;50.288;10.966;2023-04-16T08:32:39;4.13;;;3.10;;
29500;SDS011;16450;50.288;10.966;2023-04-16T08:35:41;4.20;;;3.00;;
29500;SDS011;16450;50.288;10.966;2023-04-16T08:38:43;4.70;;;3.43;;
29500;SDS011;16450;50.288;10.966;2023-04-16T08:41:45;3.70;;;2.93;;
29500;SDS011;16450;50.288;10.966;2023-04-16T08:44:47;4.23;;;3.33;;
29500;SDS011;16450;50.288;10.966;2023-04-16T08:47:51;4.13;;;3.40;;
29500;SDS011;16450;50.288;10.966;2023-04-16T08:50:54;5.73;;;3.27;;
29500;SDS011;16450;50.288;10.966;2023-04-16T08:54:20;4.43;;;3.03;;
29500;SDS011;16450;50.288;10.966;2023-04-16T08:57:27;6.07;;;3.13;;
29500;SDS011;16450;50.288;10.966;2023-04-16T09:00:36;4.30;;;3.50;;
29500;SDS011;16450;50.288;10.966;2023-04-16T09:03:39;5.37;;;3.30;;
29500;SDS011;16450;50.288;10.966;2023-04-16T09:06:42;4.73;;;3.10;;
29500;SDS011;16450;50.288;10.966;2023-04-16T09:09:46;4.23;;;3.60;;
29500;SDS011;16450;50.288;10.966;2023-04-16T09:12:51;4.17;;;3.30;;
29500;SDS011;16450;50.288;10.966;2023-04-16T09:15:56;4.13;;;3.03;;
29500;SDS011;16450;50.288;10.966;2023-04-16T09:18:58;3.37;;;2.63;;
29500;SDS011;16450;50.288;10.966;2023-04-16T09:22:00;2.97;;;2.30;;
29500;SDS011;16450;50.288;10.966;2023-04-16T09:25:02;2.83;;;2.33;;
29500;SDS011;16450;50.288;10.966;2023-04-16T09:28:04;2.77;;;2.40;;
29500;SDS011;16450;50.288;10.966;2023-04-16T09:31:10;4.20;;;2.60;;
29500;SDS011;16450;50.288;10.966;2023-04-16T09:34:14;3.30;;;2.60;;
29500;SDS011;16450;50.288;10.966;2023-04-16T09:37:16;3.73;;;2.97;;
29500;SDS011;16450;50.288;10.966;2023-04-16T09:40:22;3.97;;;2.70;;
29500;SDS011;16450;50.288;10.966;2023-04-16T09:43:25;5.00;;;2.90;;
29500;SDS011;16450;50.288;10.966;2023-04-16T09:46:28;4.17;;;2.60;;
29500;SDS011;16450;50.288;10.966;2023-04-16T09:49:39;3.97;;;2.97;;
29500;SDS011;16450;50.288;10.966;2023-04-16T09:52:43;4.17;;;3.10;;
29500;SDS011;16450;50.288;10.966;2023-04-16T09:55:48;3.20;;;2.90;;
29500;SDS011;16450;50.288;10.966;2023-04-16T09:58:49;4.53;;;3.67;;
29500;SDS011;16450;50.288;10.966;2023-04-16T10:01:57;5.23;;;3.77;;
29500;SDS011;16450;50.288;10.966;2023-04-16T10:05:16;5.17;;;4.07;;
29500;SDS011;16450;50.288;10.966;2023-04-16T10:08:20;4.93;;;3.73;;
29500;SDS011;16450;50.288;10.966;2023-04-16T10:11:24;3.03;;;2.10;;
29500;SDS011;16450;50.288;10.966;2023-04-16T10:14:26;2.90;;;1.90;;
29500;SDS011;16450;50.288;10.966;2023-04-16T10:17:28;1.90;;;1.70;;
29500;SDS011;16450;50.288;10.966;2023-04-16T10:20:31;2.13;;;1.93;;
29500;SDS011;16450;50.288;10.966;2023-04-16T10:23:33;3.30;;;2.17;;
29500;SDS011;16450;50.288;10.966;2023-04-16T10:26:35;2.83;;;2.30;;
29500;SDS011;16450;50.288;10.966;2023-04-16T10:29:37;4.00;;;2.20;;
29500;SDS011;16450;50.288;10.966;2023-04-16T10:32:39;2.90;;;2.10;;
29500;SDS011;16450;50.288;10.966;2023-04-16T10:35:43;3.30;;;2.30;;
29500;SDS011;16450;50.288;10.966;2023-04-16T10:38:58;2.23;;;2.00;;
29500;SDS011;16450;50.288;10.966;2023-04-16T10:42:11;2.67;;;2.00;;
29500;SDS011;16450;50.288;10.966;2023-04-16T10:45:13;2.67;;;1.83;;
29500;SDS011;16450;50.288;10.966;2023-04-16T10:48:17;3.47;;;2.30;;
29500;SDS011;16450;50.288;10.966;2023-04-16T10:54:28;3.37;;;2.50;;
29500;SDS011;16450;50.288;10.966;2023-04-16T10:57:31;3.40;;;2.90;;
29500;SDS011;16450;50.288;10.966;2023-04-16T11:00:47;4.60;;;2.97;;
29500;SDS011;16450;50.288;10.966;2023-04-16T11:03:51;4.73;;;3.50;;
29500;SDS011;16450;50.288;10.966;2023-04-16T11:10:19;5.30;;;3.10;;
29500;SDS011;16450;50.288;10.966;2023-04-16T11:13:21;3.53;;;2.93;;
29500;SDS011;16450;50.288;10.966;2023-04-16T11:16:25;3.97;;;2.90;;
29500;SDS011;16450;50.288;10.966;2023-04-16T11:19:27;5.83;;;3.30;;
29500;SDS011;16450;50.288;10.966;2023-04-16T11:22:30;5.50;;;3.27;;
29500;SDS011;16450;50.288;10.966;2023-04-16T11:25:34;3.33;;;2.87;;
29500;SDS011;16450;50.288;10.966;2023-04-16T11:28:37;6.80;;;3.50;;
29500;SDS011;16450;50.288;10.966;2023-04-16T11:31:39;2.80;;;2.30;;
29500;SDS011;16450;50.288;10.966;2023-04-16T11:34:42;2.00;;;1.80;;
29500;SDS011;16450;50.288;10.966;2023-04-16T11:37:46;2.37;;;1.77;;
29500;SDS011;16450;50.288;10.966;2023-04-16T11:40:50;2.50;;;2.30;;
29500;SDS011;16450;50.288;10.966;2023-04-16T11:43:54;3.43;;;2.73;;
29500;SDS011;16450;50.288;10.966;2023-04-16T11:46:56;2.83;;;2.50;;
29500;SDS011;16450;50.288;10.966;2023-04-16T11:50:13;2.80;;;2.50;;
29500;SDS011;16450;50.288;10.966;2023-04-16T11:53:16;2.97;;;2.03;;
29500;SDS011;16450;50.288;10.966;2023-04-16T11:56:25;2.63;;;2.10;;
29500;SDS011;16450;50.288;10.966;2023-04-16T11:59:35;2.40;;;2.20;;
29500;SDS011;16450;50.288;10.966;2023-04-16T12:02:57;3.33;;;2.20;;
29500;SDS011;16450;50.288;10.966;2023-04-16T12:06:06;2.73;;;2.40;;
29500;SDS011;16450;50.288;10.966;2023-04-16T12:09:24;4.00;;;3.13;;
29500;SDS011;16450;50.288;10.966;2023-04-16T12:12:28;2.73;;;2.40;;
29500;SDS011;16450;50.288;10.966;2023-04-16T12:15:54;2.80;;;2.20;;
29500;SDS011;16450;50.288;10.966;2023-04-16T12:18:58;2.33;;;1.90;;
29500;SDS011;16450;50.288;10.966;2023-04-16T12:22:02;1.80;;;1.63;;
29500;SDS011;16450;50.288;10.966;2023-04-16T12:25:04;2.63;;;1.70;;
29500;SDS011;16450;50.288;10.966;2023-04-16T12:28:07;2.93;;;2.00;;
29500;SDS011;16450;50.288;10.966;2023-04-16T12:31:08;2.53;;;1.60;;
29500;SDS011;16450;50.288;10.966;2023-04-16T12:34:11;2.43;;;1.70;;
29500;SDS011;16450;50.288;10.966;2023-04-16T12:37:15;2.50;;;1.60;;
29500;SDS011;16450;50.288;10.966;2023-04-16T12:40:17;3.70;;;2.20;;
29500;SDS011;16450;50.288;10.966;2023-04-16T12:43:19;2.10;;;1.70;;
29500;SDS011;16450;50.288;10.966;2023-04-16T12:46:21;1.90;;;1.63;;
29500;SDS011;16450;50.288;10.966;2023-04-16T12:49:23;1.37;;;1.27;;
29500;SDS011;16450;50.288;10.966;2023-04-16T12:52:25;1.80;;;1.40;;
29500;SDS011;16450;50.288;10.966;2023-04-16T12:55:27;1.40;;;1.30;;
29500;SDS011;16450;50.288;10.966;2023-04-16T12:58:29;1.50;;;1.40;;
29500;SDS011;16450;50.288;10.966;2023-04-16T13:01:31;1.33;;;1.20;;
29500;SDS011;16450;50.288;10.966;2023-04-16T13:04:36;0.90;;;0.80;;
29500;SDS011;16450;50.288;10.966;2023-04-16T13:07:38;0.80;;;0.80;;
29500;SDS011;16450;50.288;10.966;2023-04-16T13:10:41;1.17;;;0.77;;
29500;SDS011;16450;50.288;10.966;2023-04-16T13:13:43;3.57;;;1.50;;
29500;SDS011;16450;50.288;10.966;2023-04-16T13:16:45;4.43;;;1.40;;
29500;SDS011;16450;50.288;10.966;2023-04-16T13:19:47;10.00;;;2.73;;
29500;SDS011;16450;50.288;10.966;2023-04-16T13:22:49;6.03;;;1.53;;
29500;SDS011;16450;50.288;10.966;2023-04-16T13:25:51;8.80;;;4.10;;
29500;SDS011;16450;50.288;10.966;2023-04-16T13:28:53;8.03;;;3.60;;
29500;SDS011;16450;50.288;10.966;2023-04-16T13:31:55;5.33;;;3.10;;
29500;SDS011;16450;50.288;10.966;2023-04-16T13:34:57;3.13;;;2.20;;
29500;SDS011;16450;50.288;10.966;2023-04-16T13:37:59;1.57;;;1.40;;
29500;SDS011;16450;50.288;10.966;2023-04-16T13:41:01;1.10;;;0.83;;
29500;SDS011;16450;50.288;10.966;2023-04-16T13:44:03;1.23;;;0.70;;
29500;SDS011;16450;50.288;10.966;2023-04-16T13:47:05;0.60;;;0.60;;
29500;SDS011;16450;50.288;10.966;2023-04-16T13:50:09;1.20;;;1.10;;
29500;SDS011;16450;50.288;10.966;2023-04-16T13:53:11;0.77;;;0.77;;
29500;SDS011;16450;50.288;10.966;2023-04-16T13:56:14;1.33;;;0.70;;
29500;SDS011;16450;50.288;10.966;2023-04-16T13:59:16;0.80;;;0.80;;
29500;SDS011;16450;50.288;10.966;2023-04-16T14:02:18;0.60;;;0.60;;
29500;SDS011;16450;50.288;10.966;2023-04-16T14:05:21;1.47;;;0.80;;
29500;SDS011;16450;50.288;10.966;2023-04-16T14:08:26;1.00;;;0.77;;
29500;SDS011;16450;50.288;10.966;2023-04-16T14:11:28;1.53;;;0.60;;
29500;SDS011;16450;50.288;10.966;2023-04-16T14:14:31;0.87;;;0.70;;
29500;SDS011;16450;50.288;10.966;2023-04-16T14:17:33;1.20;;;0.80;;
29500;SDS011;16450;50.288;10.966;2023-04-16T14:20:36;0.70;;;0.70;;
29500;SDS011;16450;50.288;10.966;2023-04-16T14:23:40;0.83;;;0.73;;
29500;SDS011;16450;50.288;10.966;2023-04-16T14:26:42;0.80;;;0.80;;
29500;SDS011;16450;50.288;10.966;2023-04-16T14:29:44;0.80;;;0.73;;
29500;SDS011;16450;50.288;10.966;2023-04-16T14:32:47;1.77;;;0.63;;
29500;SDS011;16450;50.288;10.966;2023-04-16T14:35:49;1.30;;;1.10;;
29500;SDS011;16450;50.288;10.966;2023-04-16T14:38:51;0.70;;;0.70;;
29500;SDS011;16450;50.288;10.966;2023-04-16T14:41:53;1.10;;;1.00;;
29500;SDS011;16450;50.288;10.966;2023-04-16T14:44:55;0.70;;;0.67;;
29500;SDS011;16450;50.288;10.966;2023-04-16T14:47:57;0.87;;;0.80;;
29500;SDS011;16450;50.288;10.966;2023-04-16T14:50:59;1.90;;;1.40;;
29500;SDS011;16450;50.288;10.966;2023-04-16T14:54:01;1.37;;;1.20;;
29500;SDS011;16450;50.288;10.966;2023-04-16T14:57:03;1.50;;;1.23;;
29500;SDS011;16450;50.288;10.966;2023-04-16T15:00:05;1.97;;;1.10;;
29500;SDS011;16450;50.288;10.966;2023-04-16T15:03:10;2.30;;;1.13;;
29500;SDS011;16450;50.288;10.966;2023-04-16T15:06:15;1.33;;;1.10;;
29500;SDS011;16450;50.288;10.966;2023-04-16T15:09:17;1.73;;;1.33;;
29500;SDS011;16450;50.288;10.966;2023-04-16T15:12:19;1.03;;;0.90;;
29500;SDS011;16450;50.288;10.966;2023-04-16T15:15:21;1.30;;;1.20;;
29500;SDS011;16450;50.288;10.966;2023-04-16T15:18:23;3.00;;;2.13;;
29500;SDS011;16450;50.288;10.966;2023-04-16T15:21:26;2.10;;;1.70;;
29500;SDS011;16450;50.288;10.966;2023-04-16T15:24:28;3.17;;;2.10;;
29500;SDS011;16450;50.288;10.966;2023-04-16T15:27:30;3.40;;;2.23;;
29500;SDS011;16450;50.288;10.966;2023-04-16T15:30:31;2.60;;;2.37;;
29500;SDS011;16450;50.288;10.966;2023-04-16T15:33:34;5.00;;;2.47;;
29500;SDS011;16450;50.288;10.966;2023-04-16T15:36:36;4.50;;;4.00;;
29500;SDS011;16450;50.288;10.966;2023-04-16T15:39:38;11.10;;;6.73;;
29500;SDS011;16450;50.288;10.966;2023-04-16T15:42:40;21.90;;;13.77;;
29500;SDS011;16450;50.288;10.966;2023-04-16T15:45:43;10.17;;;6.70;;
29500;SDS011;16450;50.288;10.966;2023-04-16T15:48:45;9.60;;;6.90;;
29500;SDS011;16450;50.288;10.966;2023-04-16T15:51:47;7.87;;;5.57;;
29500;SDS011;16450;50.288;10.966;2023-04-16T15:54:49;4.20;;;3.53;;
29500;SDS011;16450;50.288;10.966;2023-04-16T15:57:51;6.33;;;4.63;;
29500;SDS011;16450;50.288;10.966;2023-04-16T16:00:53;3.83;;;3.23;;
29500;SDS011;16450;50.288;10.966;2023-04-16T16:03:54;9.20;;;6.33;;
29500;SDS011;16450;50.288;10.966;2023-04-16T16:06:57;8.93;;;6.77;;
29500;SDS011;16450;50.288;10.966;2023-04-16T16:09:59;10.37;;;6.83;;
29500;SDS011;16450;50.288;10.966;2023-04-16T16:13:00;4.93;;;3.07;;
29500;SDS011;16450;50.288;10.966;2023-04-16T16:16:05;4.03;;;3.40;;
29500;SDS011;16450;50.288;10.966;2023-04-16T16:19:07;5.17;;;3.50;;
29500;SDS011;16450;50.288;10.966;2023-04-16T16:22:10;4.60;;;3.63;;
29500;SDS011;16450;50.288;10.966;2023-04-16T16:25:13;4.53;;;3.50;;
29500;SDS011;16450;50.288;10.966;2023-04-16T16:28:15;5.10;;;4.03;;
29500;SDS011;16450;50.288;10.966;2023-04-16T16:31:17;3.93;;;3.03;;
29500;SDS011;16450;50.288;10.966;2023-04-16T16:34:19;5.20;;;3.90;;
29500;SDS011;16450;50.288;10.966;2023-04-16T16:37:21;5.43;;;4.23;;
29500;SDS011;16450;50.288;10.966;2023-04-16T16:40:23;4.73;;;4.03;;
29500;SDS011;16450;50.288;10.966;2023-04-16T16:43:25;5.60;;;3.87;;
29500;SDS011;16450;50.288;10.966;2023-04-16T16:46:27;6.13;;;4.00;;
29500;SDS011;16450;50.288;10.966;2023-04-16T16:49:30;5.43;;;4.00;;
29500;SDS011;16450;50.288;10.966;2023-04-16T16:52:32;5.03;;;3.80;;
29500;SDS011;16450;50.288;10.966;2023-04-16T16:55:34;7.20;;;4.87;;
29500;SDS011;16450;50.288;10.966;2023-04-16T16:58:36;6.57;;;4.57;;
29500;SDS011;16450;50.288;10.966;2023-04-16T17:01:38;8.00;;;5.20;;
29500;SDS011;16450;50.288;10.966;2023-04-16T17:04:40;6.47;;;4.67;;
29500;SDS011;16450;50.288;10.966;2023-04-16T17:07:42;7.10;;;5.10;;
29500;SDS011;16450;50.288;10.966;2023-04-16T17:10:44;6.93;;;5.10;;
29500;SDS011;16450;50.288;10.966;2023-04-16T17:13:46;7.97;;;5.93;;
29500;SDS011;16450;50.288;10.966;2023-04-16T17:16:48;8.63;;;5.80;;
29500;SDS011;16450;50.288;10.966;2023-04-16T17:19:50;11.37;;;7.80;;
29500;SDS011;16450;50.288;10.966;2023-04-16T17:22:52;9.57;;;6.63;;
29500;SDS011;16450;50.288;10.966;2023-04-16T17:25:54;10.20;;;7.33;;
29500;SDS011;16450;50.288;10.966;2023-04-16T17:28:56;9.13;;;7.40;;
29500;SDS011;16450;50.288;10.966;2023-04-16T17:31:59;9.33;;;6.83;;
29500;SDS011;16450;50.288;10.966;2023-04-16T17:35:02;11.00;;;9.23;;
29500;SDS011;16450;50.288;10.966;2023-04-16T17:38:04;7.20;;;5.67;;
29500;SDS011;16450;50.288;10.966;2023-04-16T17:41:07;9.20;;;6.47;;
29500;SDS011;16450;50.288;10.966;2023-04-16T17:44:09;9.73;;;7.00;;
29500;SDS011;16450;50.288;10.966;2023-04-16T17:47:12;12.20;;;9.27;;
29500;SDS011;16450;50.288;10.966;2023-04-16T17:50:14;13.23;;;9.93;;
29500;SDS011;16450;50.288;10.966;2023-04-16T17:53:16;14.27;;;10.50;;
29500;SDS011;16450;50.288;10.966;2023-04-16T17:56:18;12.50;;;10.10;;
29500;SDS011;16450;50.288;10.966;2023-04-16T17:59:22;16.53;;;12.20;;
29500;SDS011;16450;50.288;10.966;2023-04-16T18:02:25;14.97;;;10.23;;
29500;SDS011;16450;50.288;10.966;2023-04-16T18:05:27;12.87;;;9.37;;